Time;durP1;ratioP1;P1;durP2;ratioP2;P2;SDS_P1;SDS_P2;PMS_P1;PMS_P2;Temp;Humidity;BMP_temperature;BMP_pressure;BME280_temperature;BME280_humidity;BME280_pressure;Samples;Min_cycle;Max_cycle;Signal;HPM_P1;HPM_P2
2021/08/11 00:01:56;;;;;;;0.93;0.93;;;11.50;99.90;;;;;;5007744;28;20253;-78
2021/08/11 00:04:22;;;;;;;1.23;1.13;;;11.40;99.90;;;;;;5015763;28;20269;-78
2021/08/11 00:06:47;;;;;;;0.70;0.70;;;11.40;99.90;;;;;;5016037;28;20290;-78
2021/08/11 00:09:13;;;;;;;0.90;0.80;;;11.40;99.90;;;;;;5047267;28;20646;-78
2021/08/11 00:11:39;;;;;;;0.60;0.60;;;11.40;99.90;;;;;;5016158;28;20689;-78
2021/08/11 00:14:04;;;;;;;0.80;0.80;;;11.40;99.90;;;;;;5015156;28;20215;-78
2021/08/11 00:16:30;;;;;;;0.75;0.65;;;11.40;99.90;;;;;;5016005;28;20551;-78
2021/08/11 00:18:57;;;;;;;0.60;0.60;;;11.40;99.90;;;;;;5015998;28;20210;-78
2021/08/11 00:21:24;;;;;;;0.60;0.60;;;11.40;99.90;;;;;;5046383;28;20209;-78
2021/08/11 00:23:50;;;;;;;0.65;0.65;;;11.40;99.90;;;;;;5015919;28;20231;-77
2021/08/11 00:26:16;;;;;;;0.60;0.60;;;11.30;99.90;;;;;;5014631;28;20207;-78
2021/08/11 00:28:42;;;;;;;0.80;0.80;;;11.30;99.90;;;;;;5015271;28;20199;-78
2021/08/11 00:31:08;;;;;;;0.68;0.68;;;11.30;99.90;;;;;;5013939;28;20264;-78
2021/08/11 00:33:34;;;;;;;0.60;0.60;;;11.20;99.90;;;;;;5016806;28;20305;-78
2021/08/11 00:35:59;;;;;;;0.82;0.82;;;11.20;99.90;;;;;;5015969;28;20238;-78
2021/08/11 00:38:26;;;;;;;0.70;0.70;;;11.20;99.90;;;;;;5015483;28;20223;-78
2021/08/11 00:40:51;;;;;;;1.42;0.95;;;11.20;99.90;;;;;;5014667;28;20286;-78
2021/08/11 00:43:18;;;;;;;0.95;0.90;;;11.20;99.90;;;;;;5015267;28;20801;-79
2021/08/11 00:45:43;;;;;;;0.77;0.77;;;11.20;99.90;;;;;;5014248;28;20203;-78
2021/08/11 00:48:10;;;;;;;0.75;0.75;;;11.20;99.90;;;;;;5014163;28;20673;-78
2021/08/11 00:50:41;;;;;;;1.45;1.35;;;11.20;99.90;;;;;;5014047;28;20717;-78
2021/08/11 00:53:08;;;;;;;0.95;0.88;;;11.10;99.90;;;;;;5015558;28;20256;-78
2021/08/11 00:55:38;;;;;;;0.68;0.68;;;11.10;99.90;;;;;;5015161;28;20608;-78
2021/08/11 00:58:08;;;;;;;0.60;0.60;;;11.10;99.90;;;;;;5015412;28;20250;-78
2021/08/11 01:00:36;;;;;;;0.60;0.60;;;11.10;99.90;;;;;;5014941;28;20207;-78
2021/08/11 01:03:04;;;;;;;0.82;0.82;;;11.00;99.90;;;;;;5013496;23;20235;-82
2021/08/11 01:05:31;;;;;;;0.60;0.60;;;11.00;99.90;;;;;;4994132;28;20204;-83
2021/08/11 01:07:57;;;;;;;1.02;0.98;;;11.00;99.90;;;;;;4995278;28;20196;-83
2021/08/11 01:10:23;;;;;;;0.73;0.73;;;11.00;99.90;;;;;;4994032;28;20200;-82
2021/08/11 01:12:49;;;;;;;0.60;0.60;;;11.00;99.90;;;;;;4994103;28;20294;-82
2021/08/11 01:15:15;;;;;;;1.17;0.77;;;11.00;99.90;;;;;;4995626;28;20295;-83
2021/08/11 01:17:41;;;;;;;0.80;0.80;;;10.90;99.90;;;;;;4993747;28;20207;-83
2021/08/11 01:20:07;;;;;;;0.70;0.70;;;10.90;99.90;;;;;;4993692;28;20207;-79
2021/08/11 01:22:42;;;;;;;0.82;0.82;;;10.90;99.90;;;;;;4993120;28;20200;-82
2021/08/11 01:25:11;;;;;;;0.70;0.70;;;10.90;99.90;;;;;;4994087;28;20261;-83
2021/08/11 01:28:01;;;;;;;0.60;0.60;;;10.90;99.90;;;;;;4994442;28;20665;-83
2021/08/11 01:30:35;;;;;;;0.60;0.60;;;11.00;99.90;;;;;;4978187;28;20204;-83
2021/08/11 01:33:16;;;;;;;0.80;0.80;;;11.00;99.90;;;;;;4995211;28;20265;-83
2021/08/11 01:35:49;;;;;;;0.70;0.70;;;11.10;99.90;;;;;;4994972;28;20690;-82
2021/08/11 01:38:18;;;;;;;1.13;1.05;;;11.10;99.90;;;;;;4995076;28;20663;-82
2021/08/11 01:40:55;;;;;;;0.63;0.63;;;11.10;99.90;;;;;;4994992;28;20191;-82
2021/08/11 01:43:24;;;;;;;0.60;0.60;;;11.10;99.90;;;;;;4994301;28;20213;-81
2021/08/11 01:45:51;;;;;;;1.15;1.05;;;11.10;99.90;;;;;;4994745;28;20199;-82
2021/08/11 01:48:24;;;;;;;0.60;0.60;;;11.20;99.90;;;;;;4995112;28;20601;-83
2021/08/11 01:50:51;;;;;;;1.65;1.02;;;11.20;99.90;;;;;;4994816;28;20196;-83
2021/08/11 01:53:21;;;;;;;0.85;0.85;;;11.20;99.90;;;;;;4995128;28;20627;-83
2021/08/11 01:55:58;;;;;;;0.95;0.95;;;11.20;99.90;;;;;;4993779;28;20192;-84
2021/08/11 01:58:26;;;;;;;1.05;0.77;;;11.20;99.90;;;;;;4994066;28;20603;-82
2021/08/11 02:00:57;;;;;;;0.60;0.60;;;11.30;99.90;;;;;;4991163;28;20192;-81
2021/08/11 02:03:23;;;;;;;0.60;0.60;;;11.30;99.90;;;;;;4992596;28;20238;-83
2021/08/11 02:05:52;;;;;;;0.60;0.60;;;11.20;99.90;;;;;;4994653;28;20721;-83
2021/08/11 02:08:19;;;;;;;0.60;0.60;;;11.20;99.90;;;;;;4992134;28;20207;-83
2021/08/11 02:10:47;;;;;;;0.60;0.60;;;11.10;99.90;;;;;;5008671;28;20203;-83
2021/08/11 02:13:13;;;;;;;0.80;0.80;;;11.10;99.90;;;;;;4992121;28;20199;-83
2021/08/11 02:15:39;;;;;;;0.60;0.60;;;11.00;99.90;;;;;;4993567;28;20230;-82
2021/08/11 02:18:05;;;;;;;0.60;0.60;;;10.90;99.90;;;;;;4994141;28;20207;-83
2021/08/11 02:20:30;;;;;;;0.55;0.55;;;10.90;99.90;;;;;;5009066;28;20210;-82
2021/08/11 02:22:56;;;;;;;2.47;1.50;;;10.80;99.90;;;;;;4992996;28;20211;-82
2021/08/11 02:25:22;;;;;;;0.80;0.80;;;10.80;99.90;;;;;;4993902;28;20611;-82
2021/08/11 02:27:54;;;;;;;0.95;0.88;;;10.70;99.90;;;;;;4994026;28;20219;-83
2021/08/11 02:30:26;;;;;;;0.82;0.82;;;10.70;99.90;;;;;;4993735;28;20688;-82
2021/08/11 02:33:38;;;;;;;0.65;0.63;;;10.70;99.90;;;;;;4994075;28;20204;-83
2021/08/11 02:36:11;;;;;;;0.60;0.60;;;10.60;99.90;;;;;;4975758;28;20243;-83
2021/08/11 02:38:40;;;;;;;0.80;0.80;;;10.60;99.90;;;;;;4993564;28;20238;-83
2021/08/11 02:41:26;;;;;;;0.70;0.70;;;10.60;99.90;;;;;;4994900;28;20203;-83
2021/08/11 02:43:58;;;;;;;0.80;0.80;;;10.60;99.90;;;;;;4991546;28;20622;-83
2021/08/11 02:46:27;;;;;;;0.80;0.80;;;10.50;99.90;;;;;;4992600;28;20203;-82
2021/08/11 02:49:06;;;;;;;0.60;0.60;;;10.50;99.90;;;;;;4993943;28;20685;-83
2021/08/11 02:51:33;;;;;;;0.70;0.70;;;10.40;99.90;;;;;;4992409;28;20203;-82
2021/08/11 02:54:11;;;;;;;0.70;0.70;;;10.50;99.90;;;;;;4993703;28;20237;-80
2021/08/11 02:56:45;;;;;;;0.60;0.60;;;10.40;99.90;;;;;;4991365;28;20700;-82
2021/08/11 02:59:13;;;;;;;0.80;0.80;;;10.40;99.90;;;;;;5008187;28;20198;-82
2021/08/11 03:01:42;;;;;;;0.85;0.85;;;10.30;99.90;;;;;;4992535;28;20217;-82
2021/08/11 03:04:08;;;;;;;0.70;0.70;;;10.30;99.90;;;;;;4994436;28;20227;-84
2021/08/11 03:06:34;;;;;;;1.25;1.15;;;10.30;99.90;;;;;;4993339;28;20231;-83
2021/08/11 03:09:01;;;;;;;0.90;0.90;;;10.30;99.90;;;;;;4990987;28;20578;-82
2021/08/11 03:11:28;;;;;;;1.17;1.08;;;10.30;99.90;;;;;;4992400;28;20286;-84
2021/08/11 03:13:56;;;;;;;0.63;0.63;;;10.40;99.90;;;;;;4991985;28;20207;-83
2021/08/11 03:16:22;;;;;;;0.60;0.60;;;10.50;99.90;;;;;;4993519;28;20674;-83
2021/08/11 03:18:51;;;;;;;0.68;0.68;;;10.60;99.90;;;;;;4992248;28;20207;-84
2021/08/11 03:21:18;;;;;;;0.80;0.80;;;10.60;99.90;;;;;;4991033;28;20678;-83
2021/08/11 03:23:43;;;;;;;0.95;0.95;;;10.70;99.90;;;;;;5007143;28;20211;-83
2021/08/11 03:26:09;;;;;;;0.70;0.70;;;10.80;99.90;;;;;;4992472;28;20218;-84
2021/08/11 03:28:35;;;;;;;0.75;0.75;;;10.80;99.90;;;;;;4991891;28;20207;-84
2021/08/11 03:31:00;;;;;;;0.80;0.80;;;10.90;99.90;;;;;;5008159;28;20226;-84
2021/08/11 03:33:26;;;;;;;0.90;0.90;;;11.00;99.90;;;;;;4993008;28;20269;-83
2021/08/11 03:35:52;;;;;;;0.70;0.70;;;11.10;99.90;;;;;;4992102;28;20199;-84
2021/08/11 03:38:18;;;;;;;1.35;1.00;;;11.10;99.90;;;;;;4993070;28;20211;-83
2021/08/11 03:40:43;;;;;;;0.70;0.70;;;11.20;99.90;;;;;;4991997;28;20233;-84
2021/08/11 03:43:09;;;;;;;1.15;1.13;;;11.20;99.90;;;;;;4991677;28;20207;-86
2021/08/11 03:45:35;;;;;;;1.00;1.00;;;11.30;99.90;;;;;;4991735;28;20192;-83
2021/08/11 03:48:01;;;;;;;2.28;1.17;;;11.30;99.90;;;;;;4992799;28;20286;-84
2021/08/11 03:50:27;;;;;;;0.70;0.70;;;11.40;99.90;;;;;;4992084;28;20278;-83
2021/08/11 03:52:53;;;;;;;0.60;0.60;;;11.40;99.90;;;;;;4992802;28;20204;-81
2021/08/11 03:55:19;;;;;;;0.68;0.68;;;11.50;99.90;;;;;;4992027;28;20298;-83
2021/08/11 03:57:45;;;;;;;0.70;0.70;;;11.50;99.90;;;;;;4993069;28;20290;-83
2021/08/11 04:00:13;;;;;;;0.60;0.60;;;11.50;99.90;;;;;;4991827;28;20290;-83
2021/08/11 04:02:39;;;;;;;0.50;0.50;;;11.50;99.90;;;;;;4992268;28;20266;-84
2021/08/11 04:05:08;;;;;;;0.82;0.82;;;11.60;99.90;;;;;;4991452;28;20223;-84
2021/08/11 04:07:37;;;;;;;0.60;0.60;;;11.60;99.90;;;;;;4988398;28;20204;-83
2021/08/11 04:10:05;;;;;;;0.70;0.70;;;11.60;99.90;;;;;;4986555;28;20203;-83
2021/08/11 04:12:30;;;;;;;0.90;0.90;;;11.60;99.90;;;;;;4992847;28;20208;-83
2021/08/11 04:14:56;;;;;;;0.65;0.65;;;11.70;99.90;;;;;;4988281;28;20374;-84
2021/08/11 04:17:22;;;;;;;0.60;0.60;;;11.60;99.90;;;;;;4985490;28;20203;-82
2021/08/11 04:19:47;;;;;;;0.63;0.63;;;11.60;99.90;;;;;;4991561;28;20211;-83
2021/08/11 04:22:13;;;;;;;0.60;0.60;;;11.60;99.90;;;;;;4993316;28;20246;-82
2021/08/11 04:24:39;;;;;;;0.60;0.60;;;11.60;99.90;;;;;;4996563;28;20298;-82
2021/08/11 04:27:04;;;;;;;0.60;0.60;;;11.60;99.90;;;;;;4995472;28;20200;-82
2021/08/11 04:29:30;;;;;;;0.57;0.57;;;11.60;99.90;;;;;;4996247;28;20257;-82
2021/08/11 04:31:56;;;;;;;0.77;0.77;;;11.60;99.90;;;;;;4996407;28;20202;-82
2021/08/11 04:34:23;;;;;;;0.60;0.60;;;11.60;99.90;;;;;;4994996;28;20200;-82
2021/08/11 04:36:49;;;;;;;0.60;0.60;;;11.60;99.90;;;;;;4978190;28;20212;-81
2021/08/11 04:39:14;;;;;;;0.60;0.60;;;11.60;99.90;;;;;;5009614;28;20219;-82
2021/08/11 04:41:40;;;;;;;0.60;0.60;;;11.60;99.90;;;;;;4995291;28;20729;-81
2021/08/11 04:44:10;;;;;;;0.80;0.80;;;11.70;99.90;;;;;;4995212;28;20215;-81
2021/08/11 04:46:40;;;;;;;0.50;0.50;;;11.70;99.90;;;;;;4995267;28;20200;-80
2021/08/11 04:49:06;;;;;;;0.60;0.60;;;11.80;99.90;;;;;;4995997;28;20664;-82
2021/08/11 04:51:33;;;;;;;0.50;0.50;;;11.90;99.90;;;;;;4994545;28;20211;-81
2021/08/11 04:53:59;;;;;;;0.82;0.82;;;11.90;99.90;;;;;;5011371;28;20363;-79
2021/08/11 04:56:24;;;;;;;0.50;0.50;;;11.90;99.90;;;;;;4994437;28;20211;-80
2021/08/11 04:58:50;;;;;;;0.70;0.70;;;11.90;99.90;;;;;;4994855;28;20286;-81
2021/08/11 05:01:16;;;;;;;0.60;0.60;;;12.00;99.90;;;;;;4995709;28;20235;-81
2021/08/11 05:03:42;;;;;;;0.60;0.60;;;12.10;99.90;;;;;;4994117;28;20219;-81
2021/08/11 05:06:08;;;;;;;0.57;0.57;;;12.20;99.90;;;;;;4994581;28;20207;-81
2021/08/11 05:08:36;;;;;;;0.80;0.80;;;12.30;99.90;;;;;;4994168;28;20204;-80
2021/08/11 05:11:01;;;;;;;0.60;0.60;;;12.40;99.90;;;;;;4995737;28;20212;-81
2021/08/11 05:13:27;;;;;;;0.60;0.60;;;12.40;99.90;;;;;;4994220;28;20192;-80
2021/08/11 05:15:53;;;;;;;0.88;0.85;;;12.50;99.90;;;;;;5009268;28;20228;-81
2021/08/11 05:18:19;;;;;;;0.70;0.70;;;12.50;99.90;;;;;;4993747;28;20378;-79
2021/08/11 05:20:45;;;;;;;0.50;0.50;;;12.60;99.90;;;;;;5010685;28;20210;-79
2021/08/11 05:23:11;;;;;;;0.65;0.65;;;12.70;99.90;;;;;;4995132;28;20575;-79
2021/08/11 05:25:36;;;;;;;1.15;1.13;;;12.80;99.90;;;;;;4993793;28;20338;-80
2021/08/11 05:28:02;;;;;;;0.50;0.50;;;12.90;99.90;;;;;;4995168;28;20254;-79
2021/08/11 05:30:29;;;;;;;0.60;0.60;;;12.90;99.90;;;;;;5008726;28;20737;-80
2021/08/11 05:32:55;;;;;;;0.82;0.82;;;12.90;99.90;;;;;;4994415;28;20570;-80
2021/08/11 05:35:20;;;;;;;0.73;0.73;;;13.00;99.90;;;;;;4993383;28;20212;-79
2021/08/11 05:37:46;;;;;;;0.60;0.60;;;13.00;99.90;;;;;;4995094;28;20269;-78
2021/08/11 05:40:12;;;;;;;0.90;0.90;;;13.10;99.90;;;;;;4994006;28;20591;-79
2021/08/11 05:42:38;;;;;;;0.77;0.77;;;13.10;99.90;;;;;;4994511;28;20377;-80
2021/08/11 05:45:05;;;;;;;0.60;0.60;;;13.20;99.90;;;;;;4995281;28;20730;-78
2021/08/11 05:47:31;;;;;;;0.50;0.50;;;13.20;99.90;;;;;;4993564;28;20206;-79
2021/08/11 05:49:56;;;;;;;0.80;0.80;;;13.20;99.90;;;;;;4994828;28;20223;-79
2021/08/11 05:52:22;;;;;;;0.60;0.60;;;13.30;99.90;;;;;;4993271;28;20254;-79
2021/08/11 05:54:49;;;;;;;0.63;0.60;;;13.40;99.90;;;;;;4994909;28;20215;-79
2021/08/11 05:57:16;;;;;;;0.57;0.57;;;13.60;99.90;;;;;;4993579;28;20729;-78
2021/08/11 05:59:42;;;;;;;0.57;0.57;;;13.60;99.90;;;;;;4994469;28;20246;-79
2021/08/11 06:02:07;;;;;;;0.60;0.60;;;13.70;99.90;;;;;;4993009;28;20238;-79
2021/08/11 06:04:33;;;;;;;0.77;0.77;;;13.80;99.90;;;;;;4992139;28;20630;-80
2021/08/11 06:06:59;;;;;;;0.60;0.60;;;13.80;99.90;;;;;;4993559;28;20219;-80
2021/08/11 06:09:25;;;;;;;0.77;0.77;;;13.80;99.90;;;;;;4994488;28;20278;-80
2021/08/11 06:11:51;;;;;;;2.05;1.10;;;13.70;99.90;;;;;;4994660;28;20196;-79
2021/08/11 06:14:16;;;;;;;0.60;0.60;;;13.80;99.90;;;;;;4994475;28;20208;-80
2021/08/11 06:16:42;;;;;;;1.40;0.88;;;13.90;99.90;;;;;;4992233;28;20203;-79
2021/08/11 06:19:08;;;;;;;0.93;0.93;;;14.00;99.90;;;;;;4992861;28;20230;-80
2021/08/11 06:21:33;;;;;;;1.20;0.93;;;14.10;99.90;;;;;;4993070;28;20210;-80
2021/08/11 06:23:59;;;;;;;1.08;0.75;;;14.30;99.90;;;;;;4993132;28;20211;-81
2021/08/11 06:26:25;;;;;;;0.60;0.60;;;14.50;99.90;;;;;;4993019;28;20191;-81
2021/08/11 06:28:51;;;;;;;0.52;0.52;;;14.50;99.90;;;;;;5009471;28;20227;-81
2021/08/11 06:31:17;;;;;;;0.50;0.50;;;14.60;99.90;;;;;;4993763;28;20203;-81
2021/08/11 06:33:46;;;;;;;0.50;0.50;;;14.50;99.90;;;;;;4992523;28;20208;-81
2021/08/11 06:36:12;;;;;;;0.50;0.50;;;14.60;99.90;;;;;;4994220;28;20211;-80
2021/08/11 06:38:39;;;;;;;0.70;0.70;;;14.70;99.90;;;;;;4992588;28;20760;-81
2021/08/11 06:41:05;;;;;;;0.70;0.70;;;14.80;99.90;;;;;;4992551;28;20218;-81
2021/08/11 06:43:30;;;;;;;0.80;0.80;;;14.80;99.90;;;;;;4992488;28;20210;-81
2021/08/11 06:45:56;;;;;;;0.60;0.60;;;14.80;99.90;;;;;;4992448;28;20203;-81
2021/08/11 06:48:22;;;;;;;0.60;0.60;;;15.00;99.90;;;;;;4993524;28;20620;-81
2021/08/11 06:50:47;;;;;;;0.70;0.70;;;15.30;99.90;;;;;;4992838;28;20218;-81
2021/08/11 06:53:13;;;;;;;0.63;0.63;;;15.40;99.90;;;;;;5007635;28;20662;-79
2021/08/11 06:55:39;;;;;;;0.40;0.40;;;15.50;99.90;;;;;;4992303;28;20212;-79
2021/08/11 06:58:04;;;;;;;0.40;0.40;;;15.60;99.90;;;;;;4992337;28;20199;-80
2021/08/11 07:00:30;;;;;;;1.10;0.82;;;15.60;99.90;;;;;;4992013;28;20211;-79
2021/08/11 07:02:56;;;;;;;0.60;0.60;;;15.40;99.90;;;;;;4993237;28;20231;-80
2021/08/11 07:05:22;;;;;;;0.60;0.60;;;15.50;99.90;;;;;;4992269;28;20239;-80
2021/08/11 07:07:48;;;;;;;0.60;0.60;;;15.50;99.90;;;;;;4992405;28;20206;-79
2021/08/11 07:10:15;;;;;;;2.10;1.02;;;15.60;99.90;;;;;;4992547;28;20196;-80
2021/08/11 07:12:41;;;;;;;0.95;0.70;;;15.80;99.90;;;;;;4993339;28;20191;-80
2021/08/11 07:15:08;;;;;;;0.40;0.40;;;16.00;99.90;;;;;;4992948;28;20623;-81
2021/08/11 07:17:33;;;;;;;1.30;1.05;;;16.30;99.90;;;;;;4993151;28;20210;-77
2021/08/11 07:19:59;;;;;;;0.55;0.55;;;16.50;99.90;;;;;;4991118;28;20583;-80
2021/08/11 07:22:25;;;;;;;0.47;0.47;;;16.50;99.90;;;;;;4991927;28;20265;-80
2021/08/11 07:24:51;;;;;;;0.50;0.50;;;16.70;99.90;;;;;;4993372;28;20254;-80
2021/08/11 07:27:17;;;;;;;1.92;0.93;;;16.80;99.90;;;;;;4992277;28;20290;-79
2021/08/11 07:29:43;;;;;;;0.63;0.63;;;17.00;99.90;;;;;;5007123;28;20206;-80
2021/08/11 07:32:09;;;;;;;0.52;0.52;;;17.10;99.90;;;;;;4993304;28;20663;-79
2021/08/11 07:34:35;;;;;;;0.60;0.60;;;17.10;99.90;;;;;;4992786;28;20204;-79
2021/08/11 07:37:01;;;;;;;0.30;0.30;;;17.10;99.90;;;;;;4992143;28;20212;-80
2021/08/11 07:39:27;;;;;;;0.85;0.85;;;17.30;99.90;;;;;;4991852;28;20234;-79
2021/08/11 07:41:52;;;;;;;0.50;0.50;;;17.60;99.90;;;;;;4992304;28;20658;-79
2021/08/11 07:44:18;;;;;;;0.50;0.50;;;18.10;99.90;;;;;;5008348;28;20211;-79
2021/08/11 07:46:45;;;;;;;0.20;0.20;;;18.50;99.90;;;;;;4992834;28;20269;-80
2021/08/11 07:49:10;;;;;;;2.28;0.75;;;18.90;99.90;;;;;;4992301;28;20655;-78
2021/08/11 07:51:36;;;;;;;0.93;0.75;;;19.20;99.90;;;;;;4992044;28;20207;-80
2021/08/11 07:54:02;;;;;;;0.30;0.30;;;19.40;99.90;;;;;;4992851;28;20202;-80
2021/08/11 07:56:27;;;;;;;0.82;0.55;;;19.60;99.90;;;;;;5008928;28;20211;-75
2021/08/11 07:58:53;;;;;;;0.40;0.40;;;19.70;99.90;;;;;;4994871;28;20242;-75
2021/08/11 08:01:19;;;;;;;0.20;0.20;;;20.40;99.90;;;;;;4997395;28;20245;-76
2021/08/11 08:03:45;;;;;;;0.50;0.40;;;20.90;99.90;;;;;;5011892;28;20689;-76
2021/08/11 08:06:11;;;;;;;0.55;0.30;;;21.50;99.90;;;;;;5013705;28;20211;-75
2021/08/11 08:08:36;;;;;;;0.30;0.30;;;21.90;99.90;;;;;;4996754;28;20204;-77
2021/08/11 08:11:02;;;;;;;0.35;0.35;;;22.30;99.90;;;;;;5013804;28;20258;-78
2021/08/11 08:13:28;;;;;;;0.30;0.30;;;22.50;99.90;;;;;;4995920;28;20230;-75
2021/08/11 08:15:54;;;;;;;0.30;0.30;;;22.60;99.90;;;;;;4997511;28;20661;-77
2021/08/11 08:18:22;;;;;;;0.22;0.22;;;22.70;99.90;;;;;;4995954;28;20211;-73
2021/08/11 08:20:55;;;;;;;0.40;0.40;;;22.50;99.90;;;;;;4996655;28;20207;-76
2021/08/11 08:23:22;;;;;;;0.60;0.60;;;22.50;99.90;;;;;;4997072;28;20208;-75
2021/08/11 08:25:49;;;;;;;0.40;0.40;;;22.50;99.90;;;;;;4996403;28;20600;-75
2021/08/11 08:28:15;;;;;;;0.40;0.40;;;22.80;99.90;;;;;;4996543;28;20192;-74
2021/08/11 08:30:43;;;;;;;0.40;0.40;;;23.00;99.90;;;;;;4997032;28;20223;-73
2021/08/11 08:33:10;;;;;;;1.02;0.82;;;23.00;99.90;;;;;;4995520;28;20198;-76
2021/08/11 08:35:36;;;;;;;0.35;0.35;;;22.80;99.90;;;;;;5009933;28;20222;-77
2021/08/11 08:38:02;;;;;;;0.45;0.40;;;23.00;99.90;;;;;;4997105;28;20203;-76
2021/08/11 08:40:34;;;;;;;0.30;0.30;;;22.90;99.90;;;;;;4997333;28;20286;-76
2021/08/11 08:43:01;;;;;;;0.30;0.30;;;23.20;99.90;;;;;;4992217;28;20218;-76
2021/08/11 08:45:27;;;;;;;0.30;0.30;;;23.60;99.90;;;;;;4992996;28;20226;-75
2021/08/11 08:47:54;;;;;;;0.22;0.22;;;24.10;99.90;;;;;;4996071;28;20203;-76
2021/08/11 08:50:21;;;;;;;0.52;0.47;;;23.40;99.90;;;;;;4996012;28;20204;-75
2021/08/11 08:52:50;;;;;;;0.52;0.45;;;23.40;99.90;;;;;;4995597;28;20598;-75
2021/08/11 08:55:17;;;;;;;1.65;0.55;;;23.60;99.90;;;;;;4994851;28;20623;-76
2021/08/11 08:57:44;;;;;;;0.32;0.32;;;23.60;99.90;;;;;;4991057;28;20216;-75
2021/08/11 09:00:11;;;;;;;1.08;0.40;;;23.50;99.90;;;;;;4978361;28;20666;-76
2021/08/11 09:02:41;;;;;;;0.22;0.22;;;23.30;99.90;;;;;;4996011;28;20235;-77
2021/08/11 09:05:10;;;;;;;1.45;0.52;;;23.50;99.90;;;;;;4979963;28;20212;-76
2021/08/11 09:07:42;;;;;;;0.75;0.57;;;23.70;99.90;;;;;;5010809;28;20667;-76
2021/08/11 09:10:21;;;;;;;0.32;0.30;;;23.80;99.90;;;;;;4995948;28;20207;-75
2021/08/11 09:12:49;;;;;;;0.65;0.65;;;23.80;99.90;;;;;;4995169;28;20207;-75
2021/08/11 09:15:31;;;;;;;21.90;0.63;;;24.20;99.90;;;;;;4995126;28;20614;-76
2021/08/11 09:17:59;;;;;;;0.25;0.25;;;24.50;99.90;;;;;;4995695;28;20206;-76
2021/08/11 09:20:27;;;;;;;2.25;0.45;;;24.30;99.90;;;;;;4995446;28;20208;-75
2021/08/11 09:22:55;;;;;;;0.30;0.30;;;24.20;99.90;;;;;;5010916;28;20554;-75
2021/08/11 09:25:23;;;;;;;0.88;0.40;;;24.30;99.90;;;;;;4995533;28;20215;-76
2021/08/11 09:27:49;;;;;;;0.35;0.35;;;24.30;99.90;;;;;;5009775;28;20613;-75
2021/08/11 09:30:15;;;;;;;1.63;0.50;;;24.60;99.90;;;;;;4995231;28;20689;-75
2021/08/11 09:32:50;;;;;;;0.35;0.35;;;25.00;99.90;;;;;;4990696;28;20347;-78
2021/08/11 09:35:39;;;;;;;0.65;0.50;;;25.10;99.90;;;;;;4996398;28;20198;-76
2021/08/11 09:38:12;;;;;;;0.60;0.60;;;25.40;99.90;;;;;;4996784;28;20693;-77
2021/08/11 09:40:40;;;;;;;2.92;0.40;;;25.50;99.90;;;;;;4979331;28;20199;-76
2021/08/11 09:43:09;;;;;;;0.85;0.73;;;25.90;99.90;;;;;;4993378;28;20688;-75
2021/08/11 09:45:56;;;;;;;0.25;0.25;;;26.10;99.90;;;;;;5009700;28;20211;-76
2021/08/11 09:48:23;;;;;;;0.75;0.40;;;26.20;99.90;;;;;;4976697;28;20238;-75
2021/08/11 09:50:58;;;;;;;2.08;0.93;;;26.40;99.90;;;;;;4996070;28;20204;-77
2021/08/11 09:53:27;;;;;;;0.65;0.50;;;26.40;99.90;;;;;;4977944;28;20585;-78
2021/08/11 09:56:05;;;;;;;0.10;0.10;;;26.50;99.90;;;;;;4994146;28;20283;-78
2021/08/11 09:58:51;;;;;;;0.50;0.38;;;26.20;99.90;;;;;;4983196;28;20213;-77
2021/08/11 10:01:19;;;;;;;1.20;0.65;;;25.90;99.90;;;;;;4997089;28;20198;-77
2021/08/11 10:04:02;;;;;;;0.28;0.28;;;25.80;99.90;;;;;;4991148;28;20570;-77
2021/08/11 10:06:35;;;;;;;1.15;0.63;;;25.80;99.90;;;;;;4982802;28;20660;-78
2021/08/11 10:09:19;;;;;;;0.30;0.30;;;25.70;99.90;;;;;;4982311;28;20196;-77
2021/08/11 10:11:54;;;;;;;0.20;0.20;;;25.70;99.90;;;;;;4998177;28;20248;-79
2021/08/11 10:14:22;;;;;;;0.35;0.35;;;26.10;99.90;;;;;;5006837;28;20581;-76
2021/08/11 10:16:49;;;;;;;0.45;0.45;;;26.10;99.90;;;;;;5008409;28;20203;-77
2021/08/11 10:19:15;;;;;;;1.17;0.80;;;26.20;99.90;;;;;;4980972;28;20203;-78
2021/08/11 10:21:56;;;;;;;0.43;0.43;;;25.70;99.90;;;;;;4992862;28;20214;-77
2021/08/11 10:24:22;;;;;;;0.30;0.30;;;26.00;99.90;;;;;;4993236;28;20205;-74
2021/08/11 10:26:52;;;;;;;0.30;0.30;;;26.30;99.90;;;;;;4995584;28;20278;-78
2021/08/11 10:29:19;;;;;;;0.30;0.30;;;26.10;99.90;;;;;;4997799;28;20203;-76
2021/08/11 10:31:45;;;;;;;0.70;0.70;;;26.00;99.90;;;;;;5003814;28;20593;-79
2021/08/11 10:34:13;;;;;;;0.35;0.35;;;26.00;99.90;;;;;;4991177;28;20250;-78
2021/08/11 10:36:42;;;;;;;2.28;0.35;;;26.30;99.90;;;;;;4978404;28;20677;-79
2021/08/11 10:39:08;;;;;;;0.35;0.25;;;26.70;99.90;;;;;;4994932;28;20724;-79
2021/08/11 10:41:35;;;;;;;0.63;0.50;;;27.00;99.90;;;;;;4993336;28;20282;-79
2021/08/11 10:44:03;;;;;;;2.80;0.80;;;26.90;99.90;;;;;;4994722;28;20683;-74
2021/08/11 10:46:44;;;;;;;0.30;0.30;;;27.00;99.90;;;;;;4992151;28;20233;-77
2021/08/11 10:49:16;;;;;;;0.60;0.45;;;27.00;99.70;;;;;;4992696;28;20206;-74
2021/08/11 10:51:46;;;;;;;0.30;0.30;;;27.20;99.90;;;;;;4992444;28;20195;-76
2021/08/11 10:54:12;;;;;;;0.30;0.30;;;27.90;99.90;;;;;;4992587;28;20199;-77
2021/08/11 10:56:57;;;;;;;0.57;0.50;;;28.40;99.90;;;;;;4992859;28;20235;-78
2021/08/11 10:59:23;;;;;;;0.10;0.10;;;28.60;99.20;;;;;;4978233;28;20226;-73
2021/08/11 11:01:52;;;;;;;1.95;0.40;;;27.60;98.90;;;;;;4992224;28;20603;-75
2021/08/11 11:04:41;;;;;;;0.47;0.30;;;26.60;99.20;;;;;;5003790;28;20228;-75
2021/08/11 11:07:10;;;;;;;0.30;0.30;;;26.00;99.90;;;;;;4991812;28;20225;-75
2021/08/11 11:09:37;;;;;;;0.82;0.52;;;25.50;99.90;;;;;;4999075;28;20230;-75
2021/08/11 11:12:19;;;;;;;0.43;0.43;;;25.20;99.90;;;;;;5014523;28;20202;-75
2021/08/11 11:14:58;;;;;;;0.22;0.22;;;24.70;99.90;;;;;;4992554;28;20210;-75
2021/08/11 11:17:28;;;;;;;3.63;0.52;;;24.50;99.90;;;;;;4992697;28;20703;-74
2021/08/11 11:20:08;;;;;;;0.38;0.38;;;25.10;99.90;;;;;;4994300;28;20234;-76
2021/08/11 11:22:51;;;;;;;1.20;0.80;;;25.70;99.90;;;;;;4992980;28;20265;-74
2021/08/11 11:25:19;;;;;;;0.82;0.75;;;26.30;99.90;;;;;;4991817;28;20218;-75
2021/08/11 11:27:44;;;;;;;0.52;0.52;;;26.90;99.40;;;;;;4974534;28;20221;-74
2021/08/11 11:30:14;;;;;;;14.13;1.40;;;26.30;99.90;;;;;;4993687;28;20278;-75
2021/08/11 11:32:40;;;;;;;2.22;0.98;;;26.20;99.90;;;;;;4993142;28;20285;-75
2021/08/11 11:35:19;;;;;;;0.40;0.40;;;26.90;99.90;;;;;;4990460;28;20313;-75
2021/08/11 11:38:05;;;;;;;0.13;0.13;;;27.30;98.00;;;;;;4993826;28;20322;-74
2021/08/11 11:40:32;;;;;;;0.25;0.25;;;26.90;99.90;;;;;;5002404;28;20269;-74
2021/08/11 11:43:23;;;;;;;0.08;0.08;;;26.70;98.90;;;;;;4993057;28;20211;-75
2021/08/11 11:45:50;;;;;;;0.30;0.30;;;25.90;99.20;;;;;;5006554;28;20215;-74
2021/08/11 11:48:16;;;;;;;0.80;0.50;;;25.00;99.90;;;;;;4988770;28;20204;-75
2021/08/11 11:50:43;;;;;;;0.50;0.50;;;25.00;99.90;;;;;;4986410;28;20226;-76
2021/08/11 11:53:25;;;;;;;0.20;0.20;;;25.60;99.90;;;;;;4991356;28;20206;-77
2021/08/11 11:55:52;;;;;;;0.20;0.20;;;25.30;99.90;;;;;;4985555;28;20209;-76
2021/08/11 11:58:21;;;;;;;0.35;0.35;;;24.60;99.90;;;;;;4982681;28;20262;-76
2021/08/11 12:00:49;;;;;;;0.32;0.30;;;24.00;99.90;;;;;;4991266;28;20195;-77
2021/08/11 12:03:16;;;;;;;0.20;0.20;;;23.80;99.90;;;;;;4991668;28;20231;-77
2021/08/11 12:05:42;;;;;;;0.45;0.30;;;23.60;99.90;;;;;;4990991;28;20215;-76
2021/08/11 12:08:12;;;;;;;0.93;0.40;;;23.30;99.90;;;;;;4987262;28;20242;-76
2021/08/11 12:10:41;;;;;;;0.28;0.28;;;23.20;99.90;;;;;;4988360;28;20200;-75
2021/08/11 12:13:07;;;;;;;0.50;0.30;;;23.10;99.90;;;;;;4999055;28;20195;-74
2021/08/11 12:15:36;;;;;;;0.50;0.50;;;23.00;99.90;;;;;;4986805;28;20200;-74
2021/08/11 12:18:17;;;;;;;0.35;0.35;;;22.60;99.90;;;;;;4993262;28;20215;-75
2021/08/11 12:20:44;;;;;;;0.25;0.25;;;22.40;99.90;;;;;;4992734;28;20211;-75
2021/08/11 12:23:31;;;;;;;0.70;0.70;;;22.50;99.90;;;;;;4989673;28;20268;-75
2021/08/11 12:26:15;;;;;;;1.65;0.85;;;22.40;99.90;;;;;;5007732;28;20671;-75
2021/08/11 12:28:48;;;;;;;0.35;0.30;;;22.40;99.90;;;;;;4992168;28;20262;-75
2021/08/11 12:31:18;;;;;;;4.75;1.15;;;22.20;99.90;;;;;;4991674;28;20204;-75
2021/08/11 12:33:47;;;;;;;0.20;0.20;;;21.70;99.90;;;;;;5005096;28;20208;-75
2021/08/11 12:36:18;;;;;;;0.40;0.40;;;21.20;99.90;;;;;;4990869;28;20203;-76
2021/08/11 12:38:57;;;;;;;0.47;0.47;;;20.80;99.90;;;;;;4992437;28;20247;-75
2021/08/11 12:41:24;;;;;;;0.45;0.40;;;20.30;99.90;;;;;;4990364;28;20713;-75
2021/08/11 12:43:52;;;;;;;1.92;1.13;;;20.20;99.90;;;;;;4993896;28;20203;-74
2021/08/11 12:46:40;;;;;;;0.40;0.40;;;20.10;99.90;;;;;;4995670;28;20199;-75
2021/08/11 12:49:23;;;;;;;3.60;1.08;;;20.40;99.90;;;;;;4994561;28;20257;-75
2021/08/11 12:54:54;;;;;;;0.50;0.50;;;21.20;99.90;;;;;;4989030;28;20223;-75
2021/08/11 12:57:20;;;;;;;0.40;0.40;;;21.60;99.90;;;;;;4996896;28;20211;-75
2021/08/11 12:59:52;;;;;;;0.20;0.20;;;21.90;99.90;;;;;;4995884;28;20677;-75